sensor_id;sensor_type;location;lat;lon;timestamp;P1;durP1;ratioP1;P2;durP2;ratioP2
37847;SDS011;23688;33.130;-117.188;2022-11-04T00:01:50;8.27;;;1.05;;
37847;SDS011;23688;33.130;-117.188;2022-11-04T00:04:18;6.65;;;0.90;;
37847;SDS011;23688;33.130;-117.188;2022-11-04T00:06:45;9.40;;;1.35;;
37847;SDS011;23688;33.130;-117.188;2022-11-04T00:09:14;7.80;;;0.88;;
37847;SDS011;23688;33.130;-117.188;2022-11-04T00:11:45;6.00;;;0.70;;
37847;SDS011;23688;33.130;-117.188;2022-11-04T00:14:30;3.70;;;1.00;;
37847;SDS011;23688;33.130;-117.188;2022-11-04T00:16:57;9.70;;;1.35;;
37847;SDS011;23688;33.130;-117.188;2022-11-04T00:19:42;6.82;;;1.50;;
37847;SDS011;23688;33.130;-117.188;2022-11-04T00:22:27;3.85;;;1.17;;
37847;SDS011;23688;33.130;-117.188;2022-11-04T00:25:12;5.72;;;0.80;;
37847;SDS011;23688;33.130;-117.188;2022-11-04T00:28:03;9.45;;;1.70;;
37847;SDS011;23688;33.130;-117.188;2022-11-04T00:30:51;4.13;;;0.95;;
37847;SDS011;23688;33.130;-117.188;2022-11-04T00:33:19;6.75;;;1.33;;
37847;SDS011;23688;33.130;-117.188;2022-11-04T00:35:54;2.88;;;0.90;;
37847;SDS011;23688;33.130;-117.188;2022-11-04T00:38:22;4.23;;;0.90;;
37847;SDS011;23688;33.130;-117.188;2022-11-04T00:40:52;8.75;;;1.48;;
37847;SDS011;23688;33.130;-117.188;2022-11-04T00:43:22;2.00;;;0.77;;
37847;SDS011;23688;33.130;-117.188;2022-11-04T00:45:49;8.95;;;1.05;;
37847;SDS011;23688;33.130;-117.188;2022-11-04T00:48:15;5.20;;;1.13;;
37847;SDS011;23688;33.130;-117.188;2022-11-04T00:50:42;6.35;;;0.80;;
37847;SDS011;23688;33.130;-117.188;2022-11-04T00:53:08;5.28;;;1.40;;
37847;SDS011;23688;33.130;-117.188;2022-11-04T00:55:35;9.95;;;1.55;;
37847;SDS011;23688;33.130;-117.188;2022-11-04T00:58:01;5.63;;;1.10;;
37847;SDS011;23688;33.130;-117.188;2022-11-04T01:00:29;8.40;;;1.20;;
37847;SDS011;23688;33.130;-117.188;2022-11-04T01:02:55;5.03;;;1.15;;
37847;SDS011;23688;33.130;-117.188;2022-11-04T01:07:50;13.25;;;1.27;;
37847;SDS011;23688;33.130;-117.188;2022-11-04T01:10:16;6.55;;;1.20;;
37847;SDS011;23688;33.130;-117.188;2022-11-04T01:12:43;4.40;;;1.55;;
37847;SDS011;23688;33.130;-117.188;2022-11-04T01:15:09;9.40;;;1.52;;
37847;SDS011;23688;33.130;-117.188;2022-11-04T01:17:37;10.80;;;1.60;;
37847;SDS011;23688;33.130;-117.188;2022-11-04T01:20:04;10.25;;;1.42;;
37847;SDS011;23688;33.130;-117.188;2022-11-04T01:22:33;13.40;;;1.75;;
37847;SDS011;23688;33.130;-117.188;2022-11-04T01:24:59;10.02;;;1.38;;
37847;SDS011;23688;33.130;-117.188;2022-11-04T01:27:26;6.55;;;1.30;;
37847;SDS011;23688;33.130;-117.188;2022-11-04T01:29:53;6.75;;;1.27;;
37847;SDS011;23688;33.130;-117.188;2022-11-04T01:32:19;8.48;;;1.38;;
37847;SDS011;23688;33.130;-117.188;2022-11-04T01:34:45;6.07;;;1.10;;
37847;SDS011;23688;33.130;-117.188;2022-11-04T01:37:12;6.68;;;1.10;;
37847;SDS011;23688;33.130;-117.188;2022-11-04T01:39:38;9.35;;;1.48;;
37847;SDS011;23688;33.130;-117.188;2022-11-04T01:42:04;4.78;;;0.90;;
37847;SDS011;23688;33.130;-117.188;2022-11-04T01:44:45;4.95;;;1.92;;
37847;SDS011;23688;33.130;-117.188;2022-11-04T01:47:31;9.05;;;4.03;;
37847;SDS011;23688;33.130;-117.188;2022-11-04T01:50:04;8.20;;;5.55;;
37847;SDS011;23688;33.130;-117.188;2022-11-04T01:52:36;6.20;;;3.65;;
37847;SDS011;23688;33.130;-117.188;2022-11-04T01:55:20;10.32;;;5.50;;
37847;SDS011;23688;33.130;-117.188;2022-11-04T01:57:49;8.93;;;2.75;;
37847;SDS011;23688;33.130;-117.188;2022-11-04T02:00:17;6.97;;;1.90;;
37847;SDS011;23688;33.130;-117.188;2022-11-04T02:05:26;9.77;;;1.80;;
37847;SDS011;23688;33.130;-117.188;2022-11-04T02:07:54;7.32;;;1.48;;
37847;SDS011;23688;33.130;-117.188;2022-11-04T02:10:24;16.98;;;1.70;;
37847;SDS011;23688;33.130;-117.188;2022-11-04T02:12:57;11.45;;;1.30;;
37847;SDS011;23688;33.130;-117.188;2022-11-04T02:15:43;9.05;;;1.50;;
37847;SDS011;23688;33.130;-117.188;2022-11-04T02:21:41;7.28;;;1.60;;
37847;SDS011;23688;33.130;-117.188;2022-11-04T02:27:12;9.25;;;1.40;;
37847;SDS011;23688;33.130;-117.188;2022-11-04T02:35:23;8.75;;;3.17;;
37847;SDS011;23688;33.130;-117.188;2022-11-04T02:40:57;6.93;;;1.70;;
37847;SDS011;23688;33.130;-117.188;2022-11-04T02:43:27;7.72;;;1.95;;
37847;SDS011;23688;33.130;-117.188;2022-11-04T02:48:54;20.88;;;5.50;;
37847;SDS011;23688;33.130;-117.188;2022-11-04T02:54:09;5.60;;;2.17;;
37847;SDS011;23688;33.130;-117.188;2022-11-04T02:56:49;10.18;;;2.83;;
37847;SDS011;23688;33.130;-117.188;2022-11-04T02:59:38;13.95;;;2.28;;
37847;SDS011;23688;33.130;-117.188;2022-11-04T03:02:09;12.15;;;3.15;;
37847;SDS011;23688;33.130;-117.188;2022-11-04T03:04:41;10.85;;;3.63;;
37847;SDS011;23688;33.130;-117.188;2022-11-04T03:07:14;7.97;;;1.90;;
37847;SDS011;23688;33.130;-117.188;2022-11-04T03:09:46;18.13;;;3.33;;
37847;SDS011;23688;33.130;-117.188;2022-11-04T03:12:19;6.63;;;1.90;;
37847;SDS011;23688;33.130;-117.188;2022-11-04T03:14:51;5.85;;;1.50;;
37847;SDS011;23688;33.130;-117.188;2022-11-04T03:17:30;9.90;;;1.55;;
37847;SDS011;23688;33.130;-117.188;2022-11-04T03:20:04;9.07;;;2.75;;
37847;SDS011;23688;33.130;-117.188;2022-11-04T03:22:35;9.68;;;2.47;;
37847;SDS011;23688;33.130;-117.188;2022-11-04T03:25:04;9.85;;;2.20;;
37847;SDS011;23688;33.130;-117.188;2022-11-04T03:27:50;9.68;;;1.70;;
37847;SDS011;23688;33.130;-117.188;2022-11-04T03:30:31;16.70;;;2.03;;
37847;SDS011;23688;33.130;-117.188;2022-11-04T03:33:16;11.88;;;1.88;;
37847;SDS011;23688;33.130;-117.188;2022-11-04T03:35:58;8.50;;;1.42;;
37847;SDS011;23688;33.130;-117.188;2022-11-04T03:38:24;10.95;;;2.25;;
37847;SDS011;23688;33.130;-117.188;2022-11-04T03:40:51;7.93;;;1.20;;
37847;SDS011;23688;33.130;-117.188;2022-11-04T03:43:19;10.20;;;1.73;;
37847;SDS011;23688;33.130;-117.188;2022-11-04T03:45:52;15.13;;;1.73;;
37847;SDS011;23688;33.130;-117.188;2022-11-04T03:48:19;6.82;;;1.83;;
37847;SDS011;23688;33.130;-117.188;2022-11-04T03:50:48;10.27;;;2.33;;
37847;SDS011;23688;33.130;-117.188;2022-11-04T03:53:16;7.63;;;1.60;;
37847;SDS011;23688;33.130;-117.188;2022-11-04T04:00:50;6.97;;;1.13;;
37847;SDS011;23688;33.130;-117.188;2022-11-04T04:03:28;5.28;;;1.30;;
37847;SDS011;23688;33.130;-117.188;2022-11-04T04:06:08;9.65;;;1.52;;
37847;SDS011;23688;33.130;-117.188;2022-11-04T04:08:50;12.25;;;1.23;;
37847;SDS011;23688;33.130;-117.188;2022-11-04T04:14:36;8.57;;;1.65;;
37847;SDS011;23688;33.130;-117.188;2022-11-04T04:19:53;8.43;;;1.52;;
37847;SDS011;23688;33.130;-117.188;2022-11-04T04:22:33;6.50;;;1.60;;
37847;SDS011;23688;33.130;-117.188;2022-11-04T04:25:05;5.45;;;1.00;;
37847;SDS011;23688;33.130;-117.188;2022-11-04T04:27:53;5.70;;;2.03;;
37847;SDS011;23688;33.130;-117.188;2022-11-04T04:30:23;4.47;;;1.60;;
37847;SDS011;23688;33.130;-117.188;2022-11-04T04:32:50;17.35;;;1.83;;
37847;SDS011;23688;33.130;-117.188;2022-11-04T04:35:18;9.07;;;1.30;;
37847;SDS011;23688;33.130;-117.188;2022-11-04T04:38:12;6.88;;;1.40;;
37847;SDS011;23688;33.130;-117.188;2022-11-04T04:44:16;9.02;;;1.65;;
37847;SDS011;23688;33.130;-117.188;2022-11-04T04:47:31;8.20;;;1.63;;
37847;SDS011;23688;33.130;-117.188;2022-11-04T04:50:10;4.80;;;1.98;;
37847;SDS011;23688;33.130;-117.188;2022-11-04T04:52:45;4.57;;;1.50;;
37847;SDS011;23688;33.130;-117.188;2022-11-04T04:55:13;6.05;;;1.45;;
37847;SDS011;23688;33.130;-117.188;2022-11-04T04:57:41;6.40;;;1.85;;
37847;SDS011;23688;33.130;-117.188;2022-11-04T05:00:10;4.45;;;1.30;;
37847;SDS011;23688;33.130;-117.188;2022-11-04T05:02:39;7.93;;;1.75;;
37847;SDS011;23688;33.130;-117.188;2022-11-04T05:07:34;11.18;;;2.30;;
37847;SDS011;23688;33.130;-117.188;2022-11-04T05:10:00;9.27;;;3.70;;
37847;SDS011;23688;33.130;-117.188;2022-11-04T05:12:27;7.68;;;2.78;;
37847;SDS011;23688;33.130;-117.188;2022-11-04T05:15:13;8.95;;;2.50;;
37847;SDS011;23688;33.130;-117.188;2022-11-04T05:17:40;13.75;;;2.95;;
37847;SDS011;23688;33.130;-117.188;2022-11-04T05:20:06;8.93;;;2.17;;
37847;SDS011;23688;33.130;-117.188;2022-11-04T05:22:33;7.78;;;1.88;;
37847;SDS011;23688;33.130;-117.188;2022-11-04T05:25:00;7.95;;;2.63;;
37847;SDS011;23688;33.130;-117.188;2022-11-04T05:27:28;8.77;;;3.00;;
37847;SDS011;23688;33.130;-117.188;2022-11-04T05:29:54;11.07;;;2.80;;
37847;SDS011;23688;33.130;-117.188;2022-11-04T05:32:20;8.35;;;3.28;;
37847;SDS011;23688;33.130;-117.188;2022-11-04T05:34:47;9.38;;;3.03;;
37847;SDS011;23688;33.130;-117.188;2022-11-04T05:37:14;8.88;;;3.03;;
37847;SDS011;23688;33.130;-117.188;2022-11-04T05:39:40;4.97;;;2.85;;
37847;SDS011;23688;33.130;-117.188;2022-11-04T05:42:07;8.93;;;2.63;;
37847;SDS011;23688;33.130;-117.188;2022-11-04T05:44:33;4.65;;;2.33;;
37847;SDS011;23688;33.130;-117.188;2022-11-04T05:46:59;14.70;;;3.28;;
37847;SDS011;23688;33.130;-117.188;2022-11-04T05:49:26;13.23;;;3.85;;
37847;SDS011;23688;33.130;-117.188;2022-11-04T05:51:52;13.48;;;3.05;;
37847;SDS011;23688;33.130;-117.188;2022-11-04T05:54:18;8.32;;;3.33;;
37847;SDS011;23688;33.130;-117.188;2022-11-04T05:56:44;8.40;;;3.65;;
37847;SDS011;23688;33.130;-117.188;2022-11-04T05:59:11;14.02;;;2.92;;
37847;SDS011;23688;33.130;-117.188;2022-11-04T06:01:38;7.82;;;3.10;;
37847;SDS011;23688;33.130;-117.188;2022-11-04T06:04:05;7.00;;;3.10;;
37847;SDS011;23688;33.130;-117.188;2022-11-04T06:06:33;13.73;;;3.58;;
37847;SDS011;23688;33.130;-117.188;2022-11-04T06:09:01;7.38;;;3.42;;
37847;SDS011;23688;33.130;-117.188;2022-11-04T06:11:28;12.07;;;3.67;;
37847;SDS011;23688;33.130;-117.188;2022-11-04T06:13:55;6.13;;;2.30;;
37847;SDS011;23688;33.130;-117.188;2022-11-04T06:16:22;15.93;;;3.50;;
37847;SDS011;23688;33.130;-117.188;2022-11-04T06:18:49;7.82;;;2.70;;
37847;SDS011;23688;33.130;-117.188;2022-11-04T06:23:46;9.18;;;2.67;;
37847;SDS011;23688;33.130;-117.188;2022-11-04T06:26:13;9.80;;;2.92;;
37847;SDS011;23688;33.130;-117.188;2022-11-04T06:28:45;14.27;;;3.45;;
37847;SDS011;23688;33.130;-117.188;2022-11-04T06:31:11;6.97;;;2.40;;
37847;SDS011;23688;33.130;-117.188;2022-11-04T06:33:39;5.88;;;2.67;;
37847;SDS011;23688;33.130;-117.188;2022-11-04T06:36:06;9.15;;;2.20;;
37847;SDS011;23688;33.130;-117.188;2022-11-04T06:38:35;4.60;;;2.78;;
37847;SDS011;23688;33.130;-117.188;2022-11-04T06:41:03;7.22;;;2.22;;
37847;SDS011;23688;33.130;-117.188;2022-11-04T06:43:31;6.57;;;2.22;;
37847;SDS011;23688;33.130;-117.188;2022-11-04T06:45:58;8.18;;;2.13;;
37847;SDS011;23688;33.130;-117.188;2022-11-04T06:48:25;14.23;;;2.67;;
37847;SDS011;23688;33.130;-117.188;2022-11-04T06:50:55;10.45;;;2.78;;
37847;SDS011;23688;33.130;-117.188;2022-11-04T06:53:22;13.30;;;2.45;;
37847;SDS011;23688;33.130;-117.188;2022-11-04T06:55:50;4.43;;;2.20;;
37847;SDS011;23688;33.130;-117.188;2022-11-04T06:58:17;9.85;;;2.60;;
37847;SDS011;23688;33.130;-117.188;2022-11-04T07:00:43;4.43;;;2.15;;
37847;SDS011;23688;33.130;-117.188;2022-11-04T07:03:16;7.28;;;2.00;;
37847;SDS011;23688;33.130;-117.188;2022-11-04T07:05:43;8.75;;;2.35;;
37847;SDS011;23688;33.130;-117.188;2022-11-04T07:08:09;4.15;;;1.98;;
37847;SDS011;23688;33.130;-117.188;2022-11-04T07:10:35;7.47;;;2.45;;
37847;SDS011;23688;33.130;-117.188;2022-11-04T07:13:01;8.45;;;2.60;;
37847;SDS011;23688;33.130;-117.188;2022-11-04T07:15:28;8.98;;;2.08;;
37847;SDS011;23688;33.130;-117.188;2022-11-04T07:17:54;9.45;;;3.15;;
37847;SDS011;23688;33.130;-117.188;2022-11-04T07:20:20;13.65;;;4.82;;
37847;SDS011;23688;33.130;-117.188;2022-11-04T07:22:47;11.90;;;2.95;;
37847;SDS011;23688;33.130;-117.188;2022-11-04T07:25:15;12.27;;;2.85;;
37847;SDS011;23688;33.130;-117.188;2022-11-04T07:27:41;12.35;;;3.63;;
37847;SDS011;23688;33.130;-117.188;2022-11-04T07:30:08;7.43;;;3.38;;
37847;SDS011;23688;33.130;-117.188;2022-11-04T07:32:34;9.70;;;2.70;;
37847;SDS011;23688;33.130;-117.188;2022-11-04T07:35:01;12.98;;;2.60;;
37847;SDS011;23688;33.130;-117.188;2022-11-04T07:37:27;7.32;;;1.70;;
37847;SDS011;23688;33.130;-117.188;2022-11-04T07:39:54;6.18;;;2.22;;
37847;SDS011;23688;33.130;-117.188;2022-11-04T07:42:20;9.50;;;3.08;;
37847;SDS011;23688;33.130;-117.188;2022-11-04T07:44:46;5.00;;;1.73;;
37847;SDS011;23688;33.130;-117.188;2022-11-04T07:47:12;7.97;;;1.50;;
37847;SDS011;23688;33.130;-117.188;2022-11-04T07:49:39;7.88;;;2.03;;
37847;SDS011;23688;33.130;-117.188;2022-11-04T07:52:05;5.55;;;1.88;;
37847;SDS011;23688;33.130;-117.188;2022-11-04T07:54:31;6.00;;;1.83;;
37847;SDS011;23688;33.130;-117.188;2022-11-04T07:56:57;5.57;;;2.05;;
37847;SDS011;23688;33.130;-117.188;2022-11-04T07:59:25;11.13;;;1.80;;
37847;SDS011;23688;33.130;-117.188;2022-11-04T08:01:52;10.02;;;1.88;;
37847;SDS011;23688;33.130;-117.188;2022-11-04T08:04:18;8.55;;;1.88;;
37847;SDS011;23688;33.130;-117.188;2022-11-04T08:06:44;10.52;;;1.67;;
37847;SDS011;23688;33.130;-117.188;2022-11-04T08:09:11;5.55;;;2.10;;
37847;SDS011;23688;33.130;-117.188;2022-11-04T08:11:37;5.07;;;1.95;;
37847;SDS011;23688;33.130;-117.188;2022-11-04T08:14:04;5.40;;;1.83;;
37847;SDS011;23688;33.130;-117.188;2022-11-04T08:16:30;9.48;;;1.88;;
37847;SDS011;23688;33.130;-117.188;2022-11-04T08:18:56;5.55;;;1.92;;
37847;SDS011;23688;33.130;-117.188;2022-11-04T08:21:27;10.25;;;1.70;;
37847;SDS011;23688;33.130;-117.188;2022-11-04T08:23:55;8.18;;;1.80;;
37847;SDS011;23688;33.130;-117.188;2022-11-04T08:26:21;4.43;;;1.95;;
37847;SDS011;23688;33.130;-117.188;2022-11-04T08:28:49;7.53;;;2.05;;
37847;SDS011;23688;33.130;-117.188;2022-11-04T08:33:48;3.38;;;1.40;;
37847;SDS011;23688;33.130;-117.188;2022-11-04T08:36:16;9.82;;;1.80;;
37847;SDS011;23688;33.130;-117.188;2022-11-04T08:38:47;4.60;;;1.80;;
37847;SDS011;23688;33.130;-117.188;2022-11-04T08:41:17;6.13;;;1.67;;
37847;SDS011;23688;33.130;-117.188;2022-11-04T08:43:45;11.68;;;2.50;;
37847;SDS011;23688;33.130;-117.188;2022-11-04T08:46:12;2.65;;;1.55;;
37847;SDS011;23688;33.130;-117.188;2022-11-04T08:48:39;9.55;;;1.90;;
37847;SDS011;23688;33.130;-117.188;2022-11-04T08:51:10;5.95;;;1.92;;
37847;SDS011;23688;33.130;-117.188;2022-11-04T08:53:39;6.57;;;1.40;;
37847;SDS011;23688;33.130;-117.188;2022-11-04T08:56:09;4.60;;;1.50;;
37847;SDS011;23688;33.130;-117.188;2022-11-04T08:58:36;4.65;;;1.60;;
37847;SDS011;23688;33.130;-117.188;2022-11-04T09:01:03;6.03;;;1.73;;
37847;SDS011;23688;33.130;-117.188;2022-11-04T09:05:59;7.00;;;1.40;;
37847;SDS011;23688;33.130;-117.188;2022-11-04T09:08:25;8.00;;;2.00;;
37847;SDS011;23688;33.130;-117.188;2022-11-04T09:10:52;10.10;;;1.98;;
37847;SDS011;23688;33.130;-117.188;2022-11-04T09:13:18;4.35;;;1.58;;
37847;SDS011;23688;33.130;-117.188;2022-11-04T09:15:44;3.97;;;1.23;;
37847;SDS011;23688;33.130;-117.188;2022-11-04T09:18:13;7.50;;;1.70;;
37847;SDS011;23688;33.130;-117.188;2022-11-04T09:20:40;10.73;;;2.95;;
37847;SDS011;23688;33.130;-117.188;2022-11-04T09:23:06;4.20;;;1.48;;
37847;SDS011;23688;33.130;-117.188;2022-11-04T09:25:34;5.10;;;1.50;;
37847;SDS011;23688;33.130;-117.188;2022-11-04T09:28:01;10.85;;;2.13;;
37847;SDS011;23688;33.130;-117.188;2022-11-04T09:30:28;9.32;;;2.08;;
37847;SDS011;23688;33.130;-117.188;2022-11-04T09:32:55;15.13;;;2.03;;
37847;SDS011;23688;33.130;-117.188;2022-11-04T09:35:22;6.88;;;1.98;;
37847;SDS011;23688;33.130;-117.188;2022-11-04T09:37:49;7.03;;;1.83;;
37847;SDS011;23688;33.130;-117.188;2022-11-04T09:40:16;8.60;;;3.20;;
37847;SDS011;23688;33.130;-117.188;2022-11-04T09:45:27;7.78;;;2.10;;
37847;SDS011;23688;33.130;-117.188;2022-11-04T09:47:59;10.55;;;2.10;;
37847;SDS011;23688;33.130;-117.188;2022-11-04T09:50:43;11.77;;;1.90;;
37847;SDS011;23688;33.130;-117.188;2022-11-04T09:53:18;4.03;;;1.80;;
37847;SDS011;23688;33.130;-117.188;2022-11-04T09:55:54;6.15;;;1.73;;
37847;SDS011;23688;33.130;-117.188;2022-11-04T09:58:24;10.77;;;2.53;;
37847;SDS011;23688;33.130;-117.188;2022-11-04T10:00:56;7.97;;;1.92;;
37847;SDS011;23688;33.130;-117.188;2022-11-04T10:03:35;9.55;;;2.00;;
37847;SDS011;23688;33.130;-117.188;2022-11-04T10:17:35;9.38;;;1.90;;
37847;SDS011;23688;33.130;-117.188;2022-11-04T10:23:22;4.00;;;1.60;;
37847;SDS011;23688;33.130;-117.188;2022-11-04T10:26:31;3.03;;;1.60;;
37847;SDS011;23688;33.130;-117.188;2022-11-04T10:29:13;9.63;;;1.98;;
37847;SDS011;23688;33.130;-117.188;2022-11-04T10:31:44;8.95;;;1.67;;
37847;SDS011;23688;33.130;-117.188;2022-11-04T10:37:11;8.35;;;1.48;;
37847;SDS011;23688;33.130;-117.188;2022-11-04T10:39:45;9.40;;;1.90;;
37847;SDS011;23688;33.130;-117.188;2022-11-04T10:42:13;7.45;;;1.80;;
37847;SDS011;23688;33.130;-117.188;2022-11-04T10:44:45;7.40;;;1.80;;
37847;SDS011;23688;33.130;-117.188;2022-11-04T10:52:34;3.70;;;1.73;;
37847;SDS011;23688;33.130;-117.188;2022-11-04T10:55:02;6.90;;;1.67;;
37847;SDS011;23688;33.130;-117.188;2022-11-04T10:57:37;3.75;;;1.75;;
37847;SDS011;23688;33.130;-117.188;2022-11-04T11:00:07;6.43;;;1.58;;
37847;SDS011;23688;33.130;-117.188;2022-11-04T11:07:43;7.50;;;1.80;;
37847;SDS011;23688;33.130;-117.188;2022-11-04T11:10:24;4.05;;;1.50;;
37847;SDS011;23688;33.130;-117.188;2022-11-04T11:12:56;6.25;;;2.20;;
37847;SDS011;23688;33.130;-117.188;2022-11-04T11:15:48;4.68;;;1.50;;
37847;SDS011;23688;33.130;-117.188;2022-11-04T11:18:28;7.88;;;1.77;;
37847;SDS011;23688;33.130;-117.188;2022-11-04T11:21:11;6.28;;;1.60;;
37847;SDS011;23688;33.130;-117.188;2022-11-04T11:23:46;7.05;;;1.60;;
37847;SDS011;23688;33.130;-117.188;2022-11-04T11:26:16;3.83;;;1.45;;
37847;SDS011;23688;33.130;-117.188;2022-11-04T11:28:49;4.55;;;1.48;;
37847;SDS011;23688;33.130;-117.188;2022-11-04T11:31:34;5.25;;;1.23;;
37847;SDS011;23688;33.130;-117.188;2022-11-04T11:34:06;6.13;;;2.22;;
37847;SDS011;23688;33.130;-117.188;2022-11-04T11:36:51;4.53;;;1.80;;
37847;SDS011;23688;33.130;-117.188;2022-11-04T11:41:52;5.32;;;1.17;;
37847;SDS011;23688;33.130;-117.188;2022-11-04T11:44:39;7.65;;;1.33;;
37847;SDS011;23688;33.130;-117.188;2022-11-04T11:47:19;5.80;;;1.33;;
37847;SDS011;23688;33.130;-117.188;2022-11-04T11:49:45;7.00;;;1.58;;
37847;SDS011;23688;33.130;-117.188;2022-11-04T11:52:39;9.50;;;1.83;;
37847;SDS011;23688;33.130;-117.188;2022-11-04T11:55:20;3.13;;;1.75;;
37847;SDS011;23688;33.130;-117.188;2022-11-04T11:57:51;6.38;;;1.70;;
37847;SDS011;23688;33.130;-117.188;2022-11-04T12:00:35;4.72;;;1.70;;
37847;SDS011;23688;33.130;-117.188;2022-11-04T12:03:13;3.17;;;1.40;;
37847;SDS011;23688;33.130;-117.188;2022-11-04T12:05:43;6.25;;;1.45;;
37847;SDS011;23688;33.130;-117.188;2022-11-04T12:10:58;6.18;;;1.50;;
37847;SDS011;23688;33.130;-117.188;2022-11-04T12:13:36;7.23;;;1.57;;
37847;SDS011;23688;33.130;-117.188;2022-11-04T12:16:20;7.32;;;1.98;;
37847;SDS011;23688;33.130;-117.188;2022-11-04T12:21:46;3.60;;;1.60;;
37847;SDS011;23688;33.130;-117.188;2022-11-04T12:24:31;3.40;;;1.40;;
37847;SDS011;23688;33.130;-117.188;2022-11-04T12:30:07;7.05;;;1.50;;
37847;SDS011;23688;33.130;-117.188;2022-11-04T12:35:34;4.47;;;1.35;;
37847;SDS011;23688;33.130;-117.188;2022-11-04T12:38:31;6.78;;;1.10;;
37847;SDS011;23688;33.130;-117.188;2022-11-04T12:41:27;6.90;;;1.58;;
37847;SDS011;23688;33.130;-117.188;2022-11-04T13:01:07;5.75;;;1.90;;
37847;SDS011;23688;33.130;-117.188;2022-11-04T13:07:06;9.02;;;1.50;;
37847;SDS011;23688;33.130;-117.188;2022-11-04T13:09:57;5.88;;;1.60;;
37847;SDS011;23688;33.130;-117.188;2022-11-04T13:12:30;6.38;;;1.50;;
37847;SDS011;23688;33.130;-117.188;2022-11-04T13:15:04;4.78;;;1.92;;
37847;SDS011;23688;33.130;-117.188;2022-11-04T13:17:36;8.48;;;3.10;;
37847;SDS011;23688;33.130;-117.188;2022-11-04T13:20:16;6.80;;;2.33;;
37847;SDS011;23688;33.130;-117.188;2022-11-04T13:22:45;6.15;;;1.88;;
37847;SDS011;23688;33.130;-117.188;2022-11-04T13:25:38;4.28;;;1.90;;
37847;SDS011;23688;33.130;-117.188;2022-11-04T13:28:12;6.68;;;1.70;;
37847;SDS011;23688;33.130;-117.188;2022-11-04T13:38:45;8.75;;;1.95;;
37847;SDS011;23688;33.130;-117.188;2022-11-04T13:44:11;14.25;;;2.15;;
37847;SDS011;23688;33.130;-117.188;2022-11-04T13:46:46;14.68;;;1.83;;
37847;SDS011;23688;33.130;-117.188;2022-11-04T13:49:24;11.73;;;2.28;;
37847;SDS011;23688;33.130;-117.188;2022-11-04T13:54:56;8.55;;;1.90;;
37847;SDS011;23688;33.130;-117.188;2022-11-04T13:57:27;7.68;;;1.90;;
37847;SDS011;23688;33.130;-117.188;2022-11-04T14:02:42;11.43;;;2.42;;
37847;SDS011;23688;33.130;-117.188;2022-11-04T14:16:05;6.40;;;2.10;;
37847;SDS011;23688;33.130;-117.188;2022-11-04T14:18:32;6.28;;;2.03;;
37847;SDS011;23688;33.130;-117.188;2022-11-04T14:23:29;11.40;;;2.20;;
37847;SDS011;23688;33.130;-117.188;2022-11-04T14:25:58;18.08;;;2.10;;
37847;SDS011;23688;33.130;-117.188;2022-11-04T14:28:27;8.88;;;1.40;;
37847;SDS011;23688;33.130;-117.188;2022-11-04T14:31:02;6.07;;;2.00;;
37847;SDS011;23688;33.130;-117.188;2022-11-04T14:36:28;9.52;;;2.65;;
37847;SDS011;23688;33.130;-117.188;2022-11-04T14:46:46;11.10;;;2.22;;
37847;SDS011;23688;33.130;-117.188;2022-11-04T14:49:29;9.65;;;2.10;;
37847;SDS011;23688;33.130;-117.188;2022-11-04T14:55:03;9.02;;;2.45;;
37847;SDS011;23688;33.130;-117.188;2022-11-04T14:57:34;8.38;;;2.42;;
37847;SDS011;23688;33.130;-117.188;2022-11-04T15:03:44;12.60;;;2.35;;
37847;SDS011;23688;33.130;-117.188;2022-11-04T15:05:55;11.43;;;2.70;;
37847;SDS011;23688;33.130;-117.188;2022-11-04T15:13:27;29.00;;;4.75;;
37847;SDS011;23688;33.130;-117.188;2022-11-04T15:15:53;29.33;;;3.95;;
37847;SDS011;23688;33.130;-117.188;2022-11-04T15:18:22;22.17;;;3.55;;
37847;SDS011;23688;33.130;-117.188;2022-11-04T15:20:54;25.17;;;3.95;;
37847;SDS011;23688;33.130;-117.188;2022-11-04T15:23:25;24.45;;;3.88;;
37847;SDS011;23688;33.130;-117.188;2022-11-04T15:25:56;17.42;;;3.72;;
37847;SDS011;23688;33.130;-117.188;2022-11-04T15:28:24;29.65;;;3.40;;
37847;SDS011;23688;33.130;-117.188;2022-11-04T15:33:47;19.67;;;3.08;;
37847;SDS011;23688;33.130;-117.188;2022-11-04T15:36:20;9.80;;;2.55;;
37847;SDS011;23688;33.130;-117.188;2022-11-04T15:38:55;14.73;;;3.15;;
37847;SDS011;23688;33.130;-117.188;2022-11-04T15:41:28;20.50;;;2.88;;
37847;SDS011;23688;33.130;-117.188;2022-11-04T15:44:20;18.90;;;3.65;;
37847;SDS011;23688;33.130;-117.188;2022-11-04T15:46:52;19.50;;;3.53;;
37847;SDS011;23688;33.130;-117.188;2022-11-04T15:49:22;21.90;;;3.92;;
37847;SDS011;23688;33.130;-117.188;2022-11-04T15:51:59;13.45;;;3.08;;
37847;SDS011;23688;33.130;-117.188;2022-11-04T15:54:41;26.42;;;3.42;;
37847;SDS011;23688;33.130;-117.188;2022-11-04T15:57:14;32.90;;;4.25;;
37847;SDS011;23688;33.130;-117.188;2022-11-04T16:00:07;27.35;;;5.32;;
37847;SDS011;23688;33.130;-117.188;2022-11-04T16:02:37;12.77;;;3.78;;
37847;SDS011;23688;33.130;-117.188;2022-11-04T16:07:44;11.77;;;3.05;;
37847;SDS011;23688;33.130;-117.188;2022-11-04T16:10:25;23.25;;;3.35;;
37847;SDS011;23688;33.130;-117.188;2022-11-04T16:15:31;16.98;;;3.13;;
37847;SDS011;23688;33.130;-117.188;2022-11-04T16:18:02;16.05;;;3.55;;
37847;SDS011;23688;33.130;-117.188;2022-11-04T16:22:58;15.45;;;2.50;;
37847;SDS011;23688;33.130;-117.188;2022-11-04T16:25:28;7.97;;;2.67;;
37847;SDS011;23688;33.130;-117.188;2022-11-04T16:27:58;15.95;;;3.13;;
37847;SDS011;23688;33.130;-117.188;2022-11-04T16:30:26;15.65;;;3.00;;
37847;SDS011;23688;33.130;-117.188;2022-11-04T16:32:54;8.30;;;1.42;;
37847;SDS011;23688;33.130;-117.188;2022-11-04T16:35:35;4.35;;;1.23;;
37847;SDS011;23688;33.130;-117.188;2022-11-04T16:38:06;10.77;;;1.35;;
37847;SDS011;23688;33.130;-117.188;2022-11-04T16:40:35;4.70;;;1.05;;
37847;SDS011;23688;33.130;-117.188;2022-11-04T16:43:02;8.82;;;1.42;;
37847;SDS011;23688;33.130;-117.188;2022-11-04T16:45:32;9.68;;;1.60;;
37847;SDS011;23688;33.130;-117.188;2022-11-04T16:48:01;15.25;;;1.85;;
37847;SDS011;23688;33.130;-117.188;2022-11-04T16:50:27;9.05;;;2.03;;
37847;SDS011;23688;33.130;-117.188;2022-11-04T16:52:56;8.50;;;2.17;;
37847;SDS011;23688;33.130;-117.188;2022-11-04T16:55:23;9.68;;;1.73;;
37847;SDS011;23688;33.130;-117.188;2022-11-04T16:58:14;5.35;;;1.50;;
37847;SDS011;23688;33.130;-117.188;2022-11-04T17:00:43;8.38;;;1.17;;
37847;SDS011;23688;33.130;-117.188;2022-11-04T17:03:14;7.88;;;1.65;;
37847;SDS011;23688;33.130;-117.188;2022-11-04T17:05:52;4.50;;;1.33;;
37847;SDS011;23688;33.130;-117.188;2022-11-04T17:08:23;8.20;;;1.23;;
37847;SDS011;23688;33.130;-117.188;2022-11-04T17:10:50;8.73;;;1.30;;
37847;SDS011;23688;33.130;-117.188;2022-11-04T17:13:20;7.15;;;1.10;;
37847;SDS011;23688;33.130;-117.188;2022-11-04T17:15:46;7.03;;;1.45;;
37847;SDS011;23688;33.130;-117.188;2022-11-04T17:18:13;9.07;;;1.45;;
37847;SDS011;23688;33.130;-117.188;2022-11-04T17:20:41;5.28;;;1.05;;
37847;SDS011;23688;33.130;-117.188;2022-11-04T17:23:13;6.78;;;1.33;;
37847;SDS011;23688;33.130;-117.188;2022-11-04T17:25:42;5.38;;;1.10;;
37847;SDS011;23688;33.130;-117.188;2022-11-04T17:28:09;9.27;;;1.08;;
37847;SDS011;23688;33.130;-117.188;2022-11-04T17:30:37;9.23;;;1.77;;